createdAt,value
2022-08-03T00:04:43.214Z,22.13
2022-08-03T00:10:03.841Z,22.22
2022-08-03T00:15:11.155Z,22.21
2022-08-03T00:20:36.202Z,22.30
2022-08-03T00:25:40.553Z,22.24
2022-08-03T00:30:42.643Z,21.94
2022-08-03T00:35:50.606Z,21.87
2022-08-03T00:40:53.197Z,21.92
2022-08-03T00:45:55.444Z,21.92
2022-08-03T00:51:16.159Z,21.72
2022-08-03T00:56:18.819Z,21.86
2022-08-03T01:01:39.451Z,21.68
2022-08-03T01:07:18.123Z,21.66
2022-08-03T01:12:38.443Z,21.50
2022-08-03T01:18:17.253Z,21.51
2022-08-03T01:24:20.154Z,21.55
2022-08-03T01:30:12.758Z,21.51
2022-08-03T01:35:23.157Z,21.53
2022-08-03T01:40:45.474Z,21.39
2022-08-03T01:45:48.862Z,21.01
2022-08-03T01:50:52.467Z,20.89
2022-08-03T01:55:58.973Z,21.08
2022-08-03T02:01:03.466Z,20.95
2022-08-03T02:07:01.100Z,20.90
2022-08-03T02:11:35.294Z,20.88
2022-08-03T02:16:37.663Z,20.58
2022-08-03T02:22:01.265Z,20.71
2022-08-03T02:27:13.002Z,20.94
2022-08-03T02:32:20.560Z,20.89
2022-08-03T02:37:27.172Z,20.81
2022-08-03T02:42:51.993Z,20.69
2022-08-03T02:48:16.274Z,20.69
2022-08-03T02:53:19.920Z,20.69
2022-08-03T02:58:24.862Z,20.54
2022-08-03T03:03:29.781Z,20.69
2022-08-03T03:08:37.512Z,20.59
2022-08-03T03:13:45.151Z,20.35
2022-08-03T03:19:06.233Z,20.32
2022-08-03T03:24:10.113Z,20.44
2022-08-03T03:29:13.207Z,20.46
2022-08-03T03:34:34.033Z,20.34
2022-08-03T03:39:36.281Z,19.85
2022-08-03T03:44:38.846Z,19.98
2022-08-03T03:49:41.921Z,19.76
2022-08-03T03:55:02.611Z,20.19
2022-08-03T04:00:05.700Z,20.25
2022-08-03T04:05:26.600Z,20.05
2022-08-03T04:10:31.774Z,19.90
2022-08-03T04:15:54.712Z,20.05
2022-08-03T04:20:59.641Z,19.80
2022-08-03T04:26:23.202Z,20.14
2022-08-03T04:31:45.611Z,20.11
2022-08-03T04:36:58.212Z,20.11
2022-08-03T04:42:22.712Z,20.14
2022-08-03T04:47:25.401Z,20.30
2022-08-03T04:52:46.265Z,20.32
2022-08-03T04:57:49.211Z,20.33
2022-08-03T05:03:24.040Z,20.17
2022-08-03T05:08:28.419Z,20.39
2022-08-03T05:13:30.661Z,20.47
2022-08-03T05:18:59.062Z,20.72
2022-08-03T05:24:19.625Z,21.02
2022-08-03T05:29:42.965Z,20.86
2022-08-03T05:36:01.458Z,21.00
2022-08-03T05:40:56.797Z,21.11
2022-08-03T05:46:11.400Z,21.32
2022-08-03T05:51:17.463Z,21.42
2022-08-03T05:56:38.055Z,21.34
2022-08-03T06:01:42.807Z,21.44
2022-08-03T06:06:47.197Z,21.67
2022-08-03T06:12:11.183Z,22.96
2022-08-03T06:17:16.316Z,24.27
2022-08-03T06:22:37.415Z,25.65
2022-08-03T06:27:52.655Z,26.29
2022-08-03T06:33:15.206Z,27.73
2022-08-03T06:38:36.175Z,28.17
2022-08-03T06:44:02.982Z,28.32
2022-08-03T06:49:21.481Z,29.06
2022-08-03T06:54:41.807Z,29.52
2022-08-03T07:00:10.409Z,30.59
2022-08-03T07:05:06.985Z,31.39
2022-08-03T07:10:27.416Z,32.73
2022-08-03T07:15:55.374Z,32.96
2022-08-03T07:21:01.172Z,32.77
2022-08-03T07:26:06.770Z,32.44
2022-08-03T07:31:27.697Z,33.19
2022-08-03T07:36:36.416Z,33.98
2022-08-03T07:41:57.116Z,34.16
2022-08-03T07:46:59.732Z,33.83
2022-08-03T07:52:05.622Z,33.16
2022-08-03T07:57:26.195Z,34.44
2022-08-03T08:02:28.227Z,34.38
2022-08-03T08:07:30.356Z,34.51
2022-08-03T08:12:32.839Z,35.44
2022-08-03T08:17:56.138Z,36.17
2022-08-03T08:23:42.336Z,35.93
2022-08-03T08:28:44.334Z,35.97
2022-08-03T08:34:03.552Z,36.38
2022-08-03T08:39:06.039Z,36.90
2022-08-03T08:44:09.135Z,37.34
2022-08-03T08:49:17.194Z,37.03
2022-08-03T08:54:40.414Z,36.91
2022-08-03T08:59:47.995Z,37.31
2022-08-03T09:04:52.073Z,36.89
2022-08-03T09:10:14.780Z,37.15
2022-08-03T09:15:27.801Z,37.26
2022-08-03T09:20:39.882Z,37.97
2022-08-03T09:25:43.034Z,37.62
2022-08-03T09:30:59.350Z,37.89
2022-08-03T09:36:01.454Z,38.55
2022-08-03T09:41:17.581Z,38.47
2022-08-03T09:46:57.241Z,38.23
2022-08-03T09:52:33.709Z,39.02
2022-08-03T09:57:39.695Z,39.07
2022-08-03T10:03:06.803Z,37.83
2022-08-03T10:08:27.987Z,37.64
2022-08-03T10:13:30.662Z,38.63
2022-08-03T10:18:32.915Z,38.44
2022-08-03T10:23:35.916Z,38.16
2022-08-03T10:28:59.941Z,38.21
2022-08-03T10:34:27.028Z,38.17
2022-08-03T10:39:30.756Z,38.03
2022-08-03T10:44:40.537Z,38.41
2022-08-03T10:49:43.928Z,38.54
2022-08-03T10:54:51.083Z,38.28
2022-08-03T10:59:56.310Z,38.31
2022-08-03T11:05:31.517Z,38.90
2022-08-03T11:10:58.414Z,38.40
2022-08-03T11:16:22.042Z,39.44
2022-08-03T11:21:49.273Z,39.03
2022-08-03T11:27:18.482Z,38.59
2022-08-03T11:32:39.315Z,38.21
2022-08-03T11:38:04.656Z,39.38
2022-08-03T11:43:30.702Z,39.76
2022-08-03T11:48:38.993Z,40.03
2022-08-03T11:53:42.057Z,39.86
2022-08-03T11:59:19.964Z,39.71
2022-08-03T12:04:57.215Z,39.59
2022-08-03T12:10:18.044Z,39.60
2022-08-03T12:15:29.441Z,38.63
2022-08-03T12:20:54.102Z,39.07
2022-08-03T12:26:16.955Z,39.25
2022-08-03T13:39:35.513Z,39.32
2022-08-03T13:45:16.036Z,38.79
2022-08-03T13:50:18.714Z,38.78
2022-08-03T13:55:20.855Z,37.38
2022-08-03T14:00:42.153Z,38.44
2022-08-03T14:05:44.530Z,38.97
2022-08-03T14:10:47.157Z,37.22
2022-08-03T14:15:50.967Z,37.55
2022-08-03T14:21:13.354Z,37.18
2022-08-03T14:26:16.285Z,37.34
2022-08-03T14:32:09.822Z,37.47
2022-08-03T14:37:00.597Z,36.10
2022-08-03T14:42:23.999Z,36.35
2022-08-03T14:47:26.144Z,36.32
2022-08-03T14:52:29.166Z,36.49
2022-08-03T14:57:31.278Z,36.81
2022-08-03T15:02:51.661Z,36.50
2022-08-03T15:08:12.452Z,35.73
2022-08-03T15:13:33.275Z,35.83
2022-08-03T15:18:35.462Z,35.63
2022-08-03T15:23:37.678Z,35.74
2022-08-03T15:28:58.255Z,36.04
2022-08-03T15:34:20.206Z,35.48
2022-08-03T15:39:22.512Z,35.94
2022-08-03T15:44:43.458Z,36.14
2022-08-03T15:50:09.460Z,35.97
2022-08-03T15:55:30.644Z,35.93
2022-08-03T16:00:33.421Z,36.06
2022-08-03T16:05:55.382Z,36.04
2022-08-03T16:11:03.763Z,35.79
2022-08-03T16:16:07.158Z,35.51
2022-08-03T16:21:33.739Z,35.26
2022-08-03T16:26:50.433Z,34.92
2022-08-03T16:32:07.367Z,34.30
2022-08-03T16:37:37.725Z,34.13
2022-08-03T16:42:43.878Z,34.22
2022-08-03T16:48:08.016Z,34.09
2022-08-03T16:53:16.468Z,34.06
2022-08-03T16:58:42.450Z,34.05
2022-08-03T17:04:02.221Z,33.98
2022-08-03T17:09:13.406Z,33.91
2022-08-03T17:14:22.370Z,33.83
2022-08-03T17:19:25.695Z,33.76
2022-08-03T17:24:33.378Z,33.84
2022-08-03T17:30:01.735Z,33.66
2022-08-03T17:35:06.794Z,33.49
2022-08-03T17:40:29.339Z,33.39
2022-08-03T17:45:52.313Z,33.44
2022-08-03T17:51:22.144Z,33.39
2022-08-03T17:56:45.047Z,33.40
2022-08-03T18:02:02.095Z,33.20
2022-08-03T18:07:12.414Z,32.93
2022-08-03T18:12:26.476Z,32.77
2022-08-03T18:17:55.750Z,32.53
2022-08-03T18:22:56.975Z,32.24
2022-08-03T18:27:59.995Z,32.00
2022-08-03T18:34:17.193Z,31.70
2022-08-03T18:38:45.739Z,31.62
2022-08-03T18:44:06.710Z,31.41
2022-08-03T18:49:29.440Z,30.97
2022-08-03T18:55:09.483Z,30.83
2022-08-03T19:00:42.413Z,30.35
2022-08-03T19:06:13.394Z,30.37
2022-08-03T19:12:13.874Z,30.18
2022-08-03T19:17:21.302Z,29.85
2022-08-03T19:22:25.645Z,29.58
2022-08-03T19:27:31.297Z,29.28
2022-08-03T19:32:54.157Z,28.92
2022-08-03T19:38:00.059Z,28.76
2022-08-03T19:43:53.275Z,28.83
2022-08-03T19:49:20.564Z,28.71
2022-08-03T19:54:29.928Z,28.77
2022-08-03T19:59:49.847Z,28.87
2022-08-03T20:05:00.014Z,28.98
2022-08-03T20:10:23.295Z,28.73
2022-08-03T20:15:31.586Z,28.93
2022-08-03T20:20:55.408Z,29.09
2022-08-03T20:26:18.574Z,28.92
2022-08-03T20:31:32.667Z,28.36
2022-08-03T20:36:38.414Z,28.01
2022-08-03T20:41:41.515Z,27.96
2022-08-03T20:47:04.497Z,27.94
2022-08-03T20:52:18.857Z,27.88
2022-08-03T20:57:22.114Z,27.67
2022-08-03T21:02:43.635Z,27.43
2022-08-03T21:08:07.189Z,27.55
2022-08-03T21:13:37.055Z,27.62
2022-08-03T21:18:50.614Z,27.40
2022-08-03T21:24:13.083Z,27.14
2022-08-03T21:29:53.288Z,27.31
2022-08-03T21:35:15.554Z,26.93
2022-08-03T21:40:17.895Z,26.76
2022-08-03T21:45:20.130Z,26.52
2022-08-03T21:50:42.462Z,26.55
2022-08-03T21:56:08.033Z,26.43
2022-08-03T22:01:10.341Z,26.33
2022-08-03T22:06:31.474Z,26.12
2022-08-03T22:11:52.762Z,26.21
2022-08-03T22:17:14.482Z,26.08
2022-08-03T22:22:57.281Z,26.09
2022-08-03T22:28:03.566Z,25.95
2022-08-03T22:33:28.234Z,25.82
2022-08-03T22:38:32.794Z,25.59
2022-08-03T22:43:54.883Z,25.51
2022-08-03T22:48:59.291Z,25.49
2022-08-03T22:54:05.543Z,25.43
2022-08-03T22:59:39.939Z,25.51
2022-08-03T23:04:33.473Z,25.29
2022-08-03T23:09:36.882Z,25.16
2022-08-03T23:14:40.595Z,25.31
2022-08-03T23:19:44.842Z,25.21
2022-08-03T23:24:47.675Z,25.02
2022-08-03T23:30:10.478Z,25.03
2022-08-03T23:35:13.921Z,24.83
2022-08-03T23:40:16.115Z,24.86
2022-08-03T23:45:20.175Z,24.88
2022-08-03T23:50:22.458Z,24.76
2022-08-03T23:55:58.300Z,24.65
